createdAt,value
2018-09-12T00:02:05.279Z,4.27
2018-09-12T00:04:34.688Z,3.13
2018-09-12T00:07:03.488Z,3.50
2018-09-12T00:09:34.284Z,3.87
2018-09-12T00:12:03.104Z,3.37
2018-09-12T00:14:31.880Z,4.30
2018-09-12T00:17:00.773Z,4.50
2018-09-12T00:19:29.527Z,3.87
2018-09-12T00:21:58.366Z,3.73
2018-09-12T00:24:27.208Z,4.07
2018-09-12T00:26:55.992Z,3.87
2018-09-12T00:29:24.764Z,3.40
2018-09-12T00:31:53.525Z,3.57
2018-09-12T00:34:22.280Z,4.07
2018-09-12T00:36:51.035Z,3.80
2018-09-12T00:39:20.073Z,3.67
2018-09-12T00:41:48.828Z,4.23
2018-09-12T00:44:17.583Z,3.77
2018-09-12T00:46:46.336Z,4.23
2018-09-12T00:49:15.143Z,3.53
2018-09-12T00:51:43.891Z,4.00
2018-09-12T00:54:15.479Z,4.07
2018-09-12T00:56:44.236Z,4.17
2018-09-12T00:59:12.988Z,4.03
2018-09-12T01:01:41.848Z,4.37
2018-09-12T01:04:10.609Z,3.87
2018-09-12T01:06:39.355Z,3.67
2018-09-12T01:09:08.108Z,4.07
2018-09-12T01:11:36.852Z,3.50
2018-09-12T01:14:05.611Z,3.57
2018-09-12T01:16:35.305Z,3.93
2018-09-12T01:19:04.527Z,4.03
2018-09-12T01:21:33.271Z,3.87
2018-09-12T01:24:02.130Z,3.80
2018-09-12T01:26:30.903Z,4.33
2018-09-12T01:28:59.769Z,4.17
2018-09-12T01:31:28.689Z,4.03
2018-09-12T01:33:58.062Z,3.63
2018-09-12T01:36:26.981Z,4.30
2018-09-12T01:38:55.772Z,3.67
2018-09-12T01:41:24.546Z,4.07
2018-09-12T01:43:53.305Z,4.10
2018-09-12T01:46:22.287Z,4.20
2018-09-12T01:48:51.061Z,4.30
2018-09-12T01:51:19.836Z,4.40
2018-09-12T01:53:48.574Z,4.10
2018-09-12T01:56:17.344Z,3.93
2018-09-12T01:58:46.320Z,4.53
2018-09-12T02:01:15.251Z,4.57
2018-09-12T02:03:43.983Z,4.97
2018-09-12T02:06:12.771Z,3.50
2018-09-12T02:08:41.596Z,4.87
2018-09-12T02:11:10.344Z,4.20
2018-09-12T02:13:39.099Z,4.30
2018-09-12T02:16:07.890Z,3.70
2018-09-12T02:18:36.633Z,4.07
2018-09-12T02:21:05.520Z,3.60
2018-09-12T02:23:34.449Z,4.13
2018-09-12T02:26:03.396Z,4.17
2018-09-12T02:28:32.328Z,4.87
2018-09-12T02:31:01.159Z,4.27
2018-09-12T02:33:29.973Z,4.20
2018-09-12T02:36:04.167Z,4.70
2018-09-12T02:38:32.965Z,4.33
2018-09-12T02:41:01.852Z,4.87
2018-09-12T02:43:30.751Z,4.60
2018-09-12T02:46:00.187Z,4.27
2018-09-12T02:48:28.933Z,4.10
2018-09-12T02:50:57.671Z,4.00
2018-09-12T02:53:26.400Z,4.33
2018-09-12T02:55:55.256Z,4.50
2018-09-12T02:58:24.071Z,3.90
2018-09-12T03:00:52.875Z,4.00
2018-09-12T03:03:22.037Z,3.80
2018-09-12T03:05:50.897Z,4.30
2018-09-12T03:08:19.709Z,4.67
2018-09-12T03:10:48.472Z,4.33
2018-09-12T03:13:17.309Z,4.10
2018-09-12T03:15:46.092Z,5.10
2018-09-12T03:18:14.845Z,4.27
2018-09-12T03:20:43.884Z,4.60
2018-09-12T03:23:12.580Z,4.63
2018-09-12T03:25:41.382Z,4.43
2018-09-12T03:28:10.244Z,4.73
2018-09-12T03:30:38.994Z,3.90
2018-09-12T03:33:07.749Z,4.17
2018-09-12T03:35:36.481Z,4.67
2018-09-12T03:38:05.287Z,5.33
2018-09-12T03:40:34.056Z,4.20
2018-09-12T03:43:02.829Z,4.43
2018-09-12T03:45:31.576Z,4.33
2018-09-12T03:48:00.459Z,5.00
2018-09-12T03:50:29.358Z,5.37
2018-09-12T03:52:58.116Z,5.53
2018-09-12T03:55:26.888Z,4.10
2018-09-12T03:57:55.650Z,4.80
2018-09-12T04:00:24.432Z,4.37
2018-09-12T04:02:53.306Z,4.10
2018-09-12T04:05:22.096Z,4.97
2018-09-12T04:07:50.848Z,4.00
2018-09-12T04:10:19.602Z,4.47
2018-09-12T04:12:48.369Z,4.43
2018-09-12T04:15:17.304Z,4.67
2018-09-12T04:17:46.068Z,4.20
2018-09-12T04:20:14.832Z,4.67
2018-09-12T04:22:43.649Z,4.47
2018-09-12T04:25:12.395Z,4.67
2018-09-12T04:27:41.157Z,4.77
2018-09-12T04:30:10.000Z,4.03
2018-09-12T04:32:38.825Z,4.70
2018-09-12T04:35:07.607Z,4.60
2018-09-12T04:37:36.384Z,4.90
2018-09-12T04:40:05.216Z,4.97
2018-09-12T04:42:33.996Z,5.03
2018-09-12T04:45:04.079Z,4.67
2018-09-12T04:47:33.579Z,5.40
2018-09-12T04:50:02.846Z,4.80
2018-09-12T04:52:31.637Z,4.90
2018-09-12T04:55:00.860Z,5.60
2018-09-12T04:57:29.793Z,4.90
2018-09-12T04:59:59.407Z,5.50
2018-09-12T05:02:28.459Z,5.10
2018-09-12T05:05:02.374Z,5.07
2018-09-12T05:07:31.523Z,5.57
2018-09-12T05:10:00.702Z,4.43
2018-09-12T05:12:30.413Z,5.10
2018-09-12T05:14:59.614Z,4.80
2018-09-12T05:17:28.384Z,5.20
2018-09-12T05:19:58.508Z,4.93
2018-09-12T05:22:29.163Z,4.70
2018-09-12T05:24:57.950Z,5.13
2018-09-12T05:27:26.743Z,5.23
2018-09-12T05:29:55.487Z,5.10
2018-09-12T05:32:26.437Z,5.20
2018-09-12T05:34:55.404Z,4.93
2018-09-12T05:37:24.273Z,5.23
2018-09-12T05:39:53.230Z,5.70
2018-09-12T05:42:22.029Z,5.30
2018-09-12T05:44:50.782Z,5.13
2018-09-12T05:47:19.577Z,5.30
2018-09-12T05:49:48.335Z,4.33
2018-09-12T05:52:17.172Z,5.30
2018-09-12T05:54:45.936Z,5.33
2018-09-12T05:57:14.830Z,5.70
2018-09-12T05:59:43.666Z,5.37
2018-09-12T06:02:12.585Z,5.07
2018-09-12T06:04:41.345Z,5.70
2018-09-12T06:07:10.236Z,5.80
2018-09-12T06:09:38.884Z,4.83
2018-09-12T06:12:07.725Z,6.23
2018-09-12T06:14:36.490Z,5.20
2018-09-12T06:17:05.309Z,5.27
2018-09-12T06:19:34.087Z,5.67
2018-09-12T06:22:02.856Z,5.43
2018-09-12T06:24:31.738Z,5.50
2018-09-12T06:27:00.592Z,5.70
2018-09-12T06:29:29.349Z,5.30
2018-09-12T06:31:58.137Z,6.40
2018-09-12T06:34:26.892Z,5.10
2018-09-12T06:36:55.645Z,4.63
2018-09-12T06:39:24.449Z,5.60
2018-09-12T06:41:53.297Z,4.97
2018-09-12T06:44:22.106Z,5.30
2018-09-12T06:46:50.868Z,4.63
2018-09-12T06:49:19.789Z,5.00
2018-09-12T06:51:48.999Z,5.13
2018-09-12T06:54:17.872Z,4.50
2018-09-12T06:56:46.648Z,5.00
2018-09-12T06:59:15.565Z,4.60
2018-09-12T07:01:44.561Z,4.43
2018-09-12T07:04:13.583Z,4.77
2018-09-12T07:06:42.358Z,5.30
2018-09-12T07:09:11.740Z,4.13
2018-09-12T07:11:40.499Z,4.73
2018-09-12T07:14:09.321Z,4.73
2018-09-12T07:16:38.050Z,4.63
2018-09-12T07:19:06.839Z,4.57
2018-09-12T07:21:35.588Z,4.87
2018-09-12T07:24:04.390Z,5.30
2018-09-12T07:26:33.319Z,4.73
2018-09-12T07:29:02.108Z,5.23
2018-09-12T07:31:30.880Z,4.50
2018-09-12T07:33:59.697Z,4.33
2018-09-12T07:36:28.468Z,4.80
2018-09-12T07:38:57.393Z,4.63
2018-09-12T07:41:26.247Z,3.97
2018-09-12T07:43:55.091Z,4.60
2018-09-12T07:46:23.909Z,5.03
2018-09-12T07:48:52.828Z,4.83
2018-09-12T07:51:21.572Z,4.80
2018-09-12T07:53:50.336Z,5.10
2018-09-12T07:56:19.191Z,4.57
2018-09-12T07:58:47.881Z,4.43
2018-09-12T08:01:16.681Z,4.90
2018-09-12T08:03:45.578Z,4.47
2018-09-12T08:06:14.380Z,4.27
2018-09-12T15:57:53.241Z,2.80
2018-09-12T16:00:22.317Z,3.10
2018-09-12T16:02:51.489Z,3.13
2018-09-12T16:05:20.692Z,3.30
2018-09-12T16:07:49.595Z,2.53
2018-09-12T16:10:18.514Z,3.13
2018-09-12T16:12:47.531Z,3.13
2018-09-12T16:15:16.565Z,3.03
2018-09-12T16:17:45.544Z,2.83
2018-09-12T16:20:14.436Z,3.33
2018-09-12T16:22:43.316Z,3.13
2018-09-12T16:25:12.272Z,3.23
2018-09-12T16:27:41.328Z,2.47
2018-09-12T16:30:10.255Z,2.70
2018-09-12T16:32:39.262Z,3.13
2018-09-12T16:35:08.340Z,2.80
2018-09-12T16:37:37.256Z,3.37
2018-09-12T16:40:06.331Z,2.87
2018-09-12T16:42:35.708Z,3.00
2018-09-12T16:45:04.773Z,2.93
2018-09-12T16:47:34.407Z,3.07
2018-09-12T16:50:03.651Z,2.83
2018-09-12T16:52:32.804Z,3.00
2018-09-12T16:55:05.295Z,3.73
2018-09-12T16:57:34.185Z,3.60
2018-09-12T17:00:03.103Z,3.93
2018-09-12T17:02:32.059Z,3.67
2018-09-12T17:05:01.260Z,4.30
2018-09-12T17:07:30.386Z,3.93
2018-09-12T17:09:59.324Z,3.87
2018-09-12T17:12:28.315Z,3.90
2018-09-12T17:14:57.283Z,3.60
2018-09-12T17:17:26.246Z,3.83
2018-09-12T17:19:55.212Z,3.53
2018-09-12T17:22:24.122Z,3.60
2018-09-12T17:24:53.048Z,3.10
2018-09-12T17:27:22.137Z,3.43
2018-09-12T17:29:51.109Z,3.17
2018-09-12T17:32:20.059Z,3.03
2018-09-12T17:34:48.977Z,3.40
2018-09-12T17:37:17.970Z,3.10
2018-09-12T17:39:46.960Z,3.70
2018-09-12T17:42:15.935Z,3.23
2018-09-12T17:44:44.804Z,3.60
2018-09-12T17:47:14.380Z,4.40
2018-09-12T17:49:43.347Z,3.73
2018-09-12T17:52:12.259Z,3.77
2018-09-12T17:54:41.256Z,3.40
2018-09-12T17:57:10.359Z,3.17
2018-09-12T17:59:39.333Z,3.07
2018-09-12T18:02:08.256Z,3.27
2018-09-12T18:04:37.165Z,3.20
2018-09-12T18:07:06.084Z,3.60
2018-09-12T18:09:35.097Z,3.60
2018-09-12T18:12:04.027Z,3.87
2018-09-12T18:14:33.633Z,3.53
2018-09-12T18:17:02.528Z,3.17
2018-09-12T18:19:31.455Z,3.60
2018-09-12T18:22:01.062Z,3.27
2018-09-12T18:24:32.072Z,3.70
2018-09-12T18:27:02.940Z,3.10
2018-09-12T18:29:32.625Z,2.60
2018-09-12T18:32:02.421Z,2.77
2018-09-12T18:34:31.737Z,3.40
2018-09-12T18:37:00.793Z,3.43
2018-09-12T18:39:29.691Z,3.10
2018-09-12T18:41:58.976Z,3.27
2018-09-12T18:44:27.860Z,3.20
2018-09-12T18:46:56.737Z,3.10
2018-09-12T18:49:25.724Z,3.57
2018-09-12T18:51:54.613Z,3.30
2018-09-12T18:54:23.592Z,3.50
2018-09-12T18:56:52.806Z,3.00
2018-09-12T18:59:21.736Z,3.43
2018-09-12T19:01:50.628Z,3.73
2018-09-12T19:04:19.536Z,3.63
2018-09-12T19:06:48.555Z,3.97
2018-09-12T19:09:17.488Z,3.60
2018-09-12T19:11:46.403Z,3.90
2018-09-12T19:14:15.392Z,3.63
2018-09-12T19:16:47.694Z,3.87
2018-09-12T19:19:16.658Z,3.53
2018-09-12T19:21:45.608Z,4.10
2018-09-12T19:24:14.772Z,4.03
2018-09-12T19:26:43.712Z,4.07
2018-09-12T19:29:12.652Z,4.13
2018-09-12T19:31:41.695Z,4.43
2018-09-12T19:34:10.775Z,3.87
2018-09-12T19:36:40.257Z,3.60
2018-09-12T19:39:09.947Z,3.60
2018-09-12T19:41:39.604Z,3.87
2018-09-12T19:44:08.718Z,4.13
2018-09-12T19:46:37.749Z,3.80
2018-09-12T19:49:06.769Z,3.57
2018-09-12T19:51:36.033Z,3.23
2018-09-12T19:54:05.160Z,3.47
2018-09-12T19:56:34.129Z,4.40
2018-09-12T19:59:03.052Z,4.13
2018-09-12T20:01:32.058Z,3.40
2018-09-12T20:04:01.031Z,3.70
2018-09-12T20:06:29.954Z,3.90
2018-09-12T20:08:58.890Z,4.20
2018-09-12T20:11:28.153Z,4.63
2018-09-12T20:13:57.382Z,5.17
2018-09-12T20:16:26.301Z,4.77
2018-09-12T20:18:55.257Z,4.57
2018-09-12T20:21:24.375Z,4.77
2018-09-12T20:23:53.664Z,4.93
2018-09-12T20:26:22.807Z,4.50
2018-09-12T20:28:53.499Z,4.63
2018-09-12T20:31:22.945Z,5.00
2018-09-12T20:33:51.856Z,4.50
2018-09-12T20:36:20.783Z,4.27
2018-09-12T20:38:49.727Z,4.47
2018-09-12T20:41:18.891Z,4.60
2018-09-12T20:43:49.221Z,4.07
2018-09-12T20:46:18.352Z,3.97
2018-09-12T20:48:47.384Z,4.20
2018-09-12T20:51:16.572Z,3.83
2018-09-12T20:53:45.452Z,3.83
2018-09-12T20:56:14.577Z,4.37
2018-09-12T20:58:43.501Z,4.33
2018-09-12T21:01:12.534Z,4.60
2018-09-12T21:03:41.476Z,5.55
2018-09-12T21:06:10.925Z,4.33
2018-09-12T21:08:40.019Z,4.93
2018-09-12T21:11:08.987Z,3.97
2018-09-12T21:13:37.900Z,4.43
2018-09-12T21:16:06.831Z,4.67
2018-09-12T21:18:35.749Z,4.70
2018-09-12T21:21:04.830Z,5.30
2018-09-12T21:23:33.833Z,5.17
2018-09-12T21:26:02.736Z,5.83
2018-09-12T21:28:31.769Z,5.87
2018-09-12T21:31:00.677Z,5.03
2018-09-12T21:33:29.685Z,5.17
2018-09-12T21:35:58.625Z,5.13
2018-09-12T21:38:27.609Z,5.40
2018-09-12T21:40:56.579Z,4.07
2018-09-12T21:43:25.620Z,4.37
2018-09-12T21:45:54.556Z,4.00
2018-09-12T21:48:23.483Z,3.00
2018-09-12T21:50:52.400Z,4.40
2018-09-12T21:53:21.294Z,3.43
2018-09-12T21:55:50.182Z,3.90
2018-09-12T21:58:19.315Z,3.77
2018-09-12T22:00:48.420Z,4.17
2018-09-12T22:03:17.381Z,4.33
2018-09-12T22:05:46.321Z,3.67
2018-09-12T22:08:15.283Z,3.80
2018-09-12T22:10:44.165Z,4.03
2018-09-12T22:13:13.467Z,3.80
2018-09-12T22:15:42.645Z,3.73
2018-09-12T22:18:11.499Z,3.90
2018-09-12T22:20:40.374Z,3.70
2018-09-12T22:23:09.328Z,3.80
2018-09-12T22:25:38.214Z,4.07
2018-09-12T22:28:07.299Z,4.80
2018-09-12T22:30:36.198Z,5.13
2018-09-12T22:33:05.244Z,3.97
2018-09-12T22:35:34.131Z,4.57
2018-09-12T22:38:03.010Z,4.63
2018-09-12T22:40:31.920Z,5.27
2018-09-12T22:43:00.828Z,5.03
2018-09-12T22:45:29.679Z,5.00
2018-09-12T22:47:58.607Z,4.57
2018-09-12T22:50:27.548Z,5.20
2018-09-12T22:52:56.492Z,4.73
2018-09-12T22:55:25.443Z,4.93
2018-09-12T22:57:54.328Z,4.80
2018-09-12T23:00:23.413Z,5.20
2018-09-12T23:02:52.340Z,4.97
2018-09-12T23:05:21.216Z,4.83
2018-09-12T23:07:50.301Z,4.80
2018-09-12T23:10:19.190Z,5.33
2018-09-12T23:12:48.164Z,4.87
2018-09-12T23:15:17.036Z,4.60
2018-09-12T23:17:45.907Z,4.70
2018-09-12T23:20:14.802Z,4.67
2018-09-12T23:22:43.650Z,5.23
2018-09-12T23:25:12.607Z,5.57
2018-09-12T23:27:41.510Z,6.27
2018-09-12T23:30:10.552Z,6.03
2018-09-12T23:32:39.553Z,5.60
2018-09-12T23:35:08.431Z,5.57
2018-09-12T23:37:37.304Z,6.10
2018-09-12T23:40:06.324Z,5.87
2018-09-12T23:42:35.220Z,5.33
2018-09-12T23:45:04.167Z,5.03
2018-09-12T23:47:33.044Z,5.50
2018-09-12T23:50:01.964Z,5.83
2018-09-12T23:52:30.911Z,5.13
2018-09-12T23:54:59.763Z,5.43
2018-09-12T23:57:28.627Z,5.00
2018-09-12T23:59:57.615Z,5.37
